sensor_id;sensor_type;location;lat;lon;timestamp;P1;durP1;ratioP1;P2;durP2;ratioP2
20896;SDS011;10608;42.600;23.398;2023-07-22T00:01:48;30.33;;;28.70;;
20896;SDS011;10608;42.600;23.398;2023-07-22T00:04:14;29.90;;;28.30;;
20896;SDS011;10608;42.600;23.398;2023-07-22T00:06:39;32.70;;;31.13;;
20896;SDS011;10608;42.600;23.398;2023-07-22T00:09:05;26.83;;;25.40;;
20896;SDS011;10608;42.600;23.398;2023-07-22T00:11:30;27.87;;;26.27;;
20896;SDS011;10608;42.600;23.398;2023-07-22T00:13:56;30.50;;;29.00;;
20896;SDS011;10608;42.600;23.398;2023-07-22T00:16:21;32.93;;;31.40;;
20896;SDS011;10608;42.600;23.398;2023-07-22T00:18:47;36.07;;;34.43;;
20896;SDS011;10608;42.600;23.398;2023-07-22T00:21:13;33.40;;;31.70;;
20896;SDS011;10608;42.600;23.398;2023-07-22T00:23:38;32.67;;;31.17;;
20896;SDS011;10608;42.600;23.398;2023-07-22T00:26:05;34.80;;;33.10;;
20896;SDS011;10608;42.600;23.398;2023-07-22T00:28:30;37.93;;;35.93;;
20896;SDS011;10608;42.600;23.398;2023-07-22T00:30:56;42.10;;;40.03;;
20896;SDS011;10608;42.600;23.398;2023-07-22T00:33:22;42.80;;;40.90;;
20896;SDS011;10608;42.600;23.398;2023-07-22T00:35:48;45.10;;;43.00;;
20896;SDS011;10608;42.600;23.398;2023-07-22T00:38:17;43.13;;;41.03;;
20896;SDS011;10608;42.600;23.398;2023-07-22T00:40:44;34.33;;;32.60;;
20896;SDS011;10608;42.600;23.398;2023-07-22T00:43:09;35.70;;;34.10;;
20896;SDS011;10608;42.600;23.398;2023-07-22T00:45:36;37.60;;;35.83;;
20896;SDS011;10608;42.600;23.398;2023-07-22T00:48:02;33.43;;;31.67;;
20896;SDS011;10608;42.600;23.398;2023-07-22T00:50:29;31.10;;;29.50;;
20896;SDS011;10608;42.600;23.398;2023-07-22T00:52:56;25.10;;;23.80;;
20896;SDS011;10608;42.600;23.398;2023-07-22T00:55:22;23.57;;;22.17;;
20896;SDS011;10608;42.600;23.398;2023-07-22T00:57:48;22.57;;;21.47;;
20896;SDS011;10608;42.600;23.398;2023-07-22T01:00:13;21.83;;;20.53;;
20896;SDS011;10608;42.600;23.398;2023-07-22T01:02:41;31.03;;;29.37;;
20896;SDS011;10608;42.600;23.398;2023-07-22T01:05:07;38.37;;;36.57;;
20896;SDS011;10608;42.600;23.398;2023-07-22T01:07:35;44.63;;;42.50;;
20896;SDS011;10608;42.600;23.398;2023-07-22T01:10:01;45.10;;;42.70;;
20896;SDS011;10608;42.600;23.398;2023-07-22T01:12:28;36.90;;;34.83;;
20896;SDS011;10608;42.600;23.398;2023-07-22T01:14:53;32.47;;;30.97;;
20896;SDS011;10608;42.600;23.398;2023-07-22T01:17:19;27.67;;;26.33;;
20896;SDS011;10608;42.600;23.398;2023-07-22T01:19:44;26.10;;;24.80;;
20896;SDS011;10608;42.600;23.398;2023-07-22T01:22:11;23.70;;;22.60;;
20896;SDS011;10608;42.600;23.398;2023-07-22T01:24:38;27.83;;;26.33;;
20896;SDS011;10608;42.600;23.398;2023-07-22T01:27:05;33.63;;;32.03;;
20896;SDS011;10608;42.600;23.398;2023-07-22T01:29:34;30.23;;;28.60;;
20896;SDS011;10608;42.600;23.398;2023-07-22T01:32:00;37.33;;;35.53;;
20896;SDS011;10608;42.600;23.398;2023-07-22T01:34:26;34.60;;;33.00;;
20896;SDS011;10608;42.600;23.398;2023-07-22T01:36:51;30.47;;;28.97;;
20896;SDS011;10608;42.600;23.398;2023-07-22T01:39:17;26.20;;;24.93;;
20896;SDS011;10608;42.600;23.398;2023-07-22T01:41:47;23.87;;;22.57;;
20896;SDS011;10608;42.600;23.398;2023-07-22T01:44:13;25.80;;;24.63;;
20896;SDS011;10608;42.600;23.398;2023-07-22T01:46:39;30.20;;;28.57;;
20896;SDS011;10608;42.600;23.398;2023-07-22T01:49:05;31.13;;;29.60;;
20896;SDS011;10608;42.600;23.398;2023-07-22T01:51:35;40.37;;;38.37;;
20896;SDS011;10608;42.600;23.398;2023-07-22T01:54:02;36.97;;;35.13;;
20896;SDS011;10608;42.600;23.398;2023-07-22T01:56:28;31.50;;;30.03;;
20896;SDS011;10608;42.600;23.398;2023-07-22T01:58:53;32.43;;;30.83;;
20896;SDS011;10608;42.600;23.398;2023-07-22T02:01:19;30.90;;;29.40;;
20896;SDS011;10608;42.600;23.398;2023-07-22T02:03:44;35.80;;;33.73;;
20896;SDS011;10608;42.600;23.398;2023-07-22T02:06:11;37.57;;;35.83;;
20896;SDS011;10608;42.600;23.398;2023-07-22T02:08:36;42.67;;;40.50;;
20896;SDS011;10608;42.600;23.398;2023-07-22T02:11:02;39.97;;;37.97;;
20896;SDS011;10608;42.600;23.398;2023-07-22T02:13:30;43.70;;;41.70;;
20896;SDS011;10608;42.600;23.398;2023-07-22T02:15:56;42.37;;;40.30;;
20896;SDS011;10608;42.600;23.398;2023-07-22T02:18:22;41.80;;;39.83;;
20896;SDS011;10608;42.600;23.398;2023-07-22T02:20:47;59.80;;;57.00;;
20896;SDS011;10608;42.600;23.398;2023-07-22T02:23:13;60.07;;;57.10;;
20896;SDS011;10608;42.600;23.398;2023-07-22T02:25:39;59.70;;;57.03;;
20896;SDS011;10608;42.600;23.398;2023-07-22T02:28:04;60.73;;;57.93;;
20896;SDS011;10608;42.600;23.398;2023-07-22T02:30:33;62.67;;;59.97;;
20896;SDS011;10608;42.600;23.398;2023-07-22T02:33:00;44.60;;;42.63;;
20896;SDS011;10608;42.600;23.398;2023-07-22T02:35:27;39.87;;;38.03;;
20896;SDS011;10608;42.600;23.398;2023-07-22T02:37:52;36.60;;;34.83;;
20896;SDS011;10608;42.600;23.398;2023-07-22T02:40:18;32.63;;;31.03;;
20896;SDS011;10608;42.600;23.398;2023-07-22T02:42:43;30.30;;;28.70;;
20896;SDS011;10608;42.600;23.398;2023-07-22T02:45:09;36.47;;;34.57;;
20896;SDS011;10608;42.600;23.398;2023-07-22T02:47:35;39.47;;;37.33;;
20896;SDS011;10608;42.600;23.398;2023-07-22T02:50:00;41.80;;;39.60;;
20896;SDS011;10608;42.600;23.398;2023-07-22T02:52:26;37.53;;;35.73;;
20896;SDS011;10608;42.600;23.398;2023-07-22T02:57:37;39.47;;;37.53;;
20896;SDS011;10608;42.600;23.398;2023-07-22T03:00:03;47.70;;;45.40;;
20896;SDS011;10608;42.600;23.398;2023-07-22T03:02:35;44.60;;;42.50;;
20896;SDS011;10608;42.600;23.398;2023-07-22T03:05:01;49.17;;;46.77;;
20896;SDS011;10608;42.600;23.398;2023-07-22T03:07:29;54.87;;;52.30;;
20896;SDS011;10608;42.600;23.398;2023-07-22T03:09:55;55.20;;;52.07;;
20896;SDS011;10608;42.600;23.398;2023-07-22T03:12:20;57.40;;;54.40;;
20896;SDS011;10608;42.600;23.398;2023-07-22T03:14:45;59.97;;;57.17;;
20896;SDS011;10608;42.600;23.398;2023-07-22T03:17:11;50.90;;;48.30;;
20896;SDS011;10608;42.600;23.398;2023-07-22T03:19:39;47.47;;;45.00;;
20896;SDS011;10608;42.600;23.398;2023-07-22T03:22:05;51.40;;;48.97;;
20896;SDS011;10608;42.600;23.398;2023-07-22T03:24:31;57.40;;;54.77;;
20896;SDS011;10608;42.600;23.398;2023-07-22T03:26:56;60.37;;;57.30;;
20896;SDS011;10608;42.600;23.398;2023-07-22T03:29:21;61.17;;;58.20;;
20896;SDS011;10608;42.600;23.398;2023-07-22T03:31:49;64.33;;;61.10;;
20896;SDS011;10608;42.600;23.398;2023-07-22T03:34:14;58.63;;;55.93;;
20896;SDS011;10608;42.600;23.398;2023-07-22T03:36:40;48.53;;;46.17;;
20896;SDS011;10608;42.600;23.398;2023-07-22T03:39:05;38.40;;;36.50;;
20896;SDS011;10608;42.600;23.398;2023-07-22T03:41:31;31.73;;;30.10;;
20896;SDS011;10608;42.600;23.398;2023-07-22T03:43:56;31.53;;;29.73;;
20896;SDS011;10608;42.600;23.398;2023-07-22T03:46:22;33.53;;;31.93;;
20896;SDS011;10608;42.600;23.398;2023-07-22T03:48:47;41.97;;;39.97;;
20896;SDS011;10608;42.600;23.398;2023-07-22T03:51:12;43.03;;;40.83;;
20896;SDS011;10608;42.600;23.398;2023-07-22T03:53:38;40.17;;;38.33;;
20896;SDS011;10608;42.600;23.398;2023-07-22T03:56:03;38.73;;;36.83;;
20896;SDS011;10608;42.600;23.398;2023-07-22T03:58:29;36.20;;;34.27;;
20896;SDS011;10608;42.600;23.398;2023-07-22T04:00:54;150.57;;;143.70;;
20896;SDS011;10608;42.600;23.398;2023-07-22T04:03:20;50.07;;;47.80;;
20896;SDS011;10608;42.600;23.398;2023-07-22T04:05:52;30.23;;;28.43;;
20896;SDS011;10608;42.600;23.398;2023-07-22T04:08:21;30.33;;;28.73;;
20896;SDS011;10608;42.600;23.398;2023-07-22T04:10:52;37.23;;;35.30;;
20896;SDS011;10608;42.600;23.398;2023-07-22T04:13:18;34.33;;;32.53;;
20896;SDS011;10608;42.600;23.398;2023-07-22T04:15:44;36.00;;;34.23;;
20896;SDS011;10608;42.600;23.398;2023-07-22T04:18:09;38.93;;;36.67;;
20896;SDS011;10608;42.600;23.398;2023-07-22T04:20:35;43.23;;;41.00;;
20896;SDS011;10608;42.600;23.398;2023-07-22T04:23:00;50.03;;;47.10;;
20896;SDS011;10608;42.600;23.398;2023-07-22T04:25:26;41.30;;;39.10;;
20896;SDS011;10608;42.600;23.398;2023-07-22T04:27:51;41.00;;;38.97;;
20896;SDS011;10608;42.600;23.398;2023-07-22T04:30:16;31.43;;;29.93;;
20896;SDS011;10608;42.600;23.398;2023-07-22T04:32:47;35.67;;;34.03;;
20896;SDS011;10608;42.600;23.398;2023-07-22T04:35:13;44.97;;;42.73;;
20896;SDS011;10608;42.600;23.398;2023-07-22T04:37:39;47.00;;;44.90;;
20896;SDS011;10608;42.600;23.398;2023-07-22T04:40:04;36.17;;;34.23;;
20896;SDS011;10608;42.600;23.398;2023-07-22T04:42:33;25.17;;;23.73;;
20896;SDS011;10608;42.600;23.398;2023-07-22T04:44:58;25.20;;;23.90;;
20896;SDS011;10608;42.600;23.398;2023-07-22T04:47:24;18.97;;;17.97;;
20896;SDS011;10608;42.600;23.398;2023-07-22T04:49:49;17.27;;;16.27;;
20896;SDS011;10608;42.600;23.398;2023-07-22T04:52:15;16.67;;;15.77;;
20896;SDS011;10608;42.600;23.398;2023-07-22T04:54:41;16.03;;;14.83;;
20896;SDS011;10608;42.600;23.398;2023-07-22T04:57:06;14.63;;;13.60;;
20896;SDS011;10608;42.600;23.398;2023-07-22T04:59:32;18.93;;;17.73;;
20896;SDS011;10608;42.600;23.398;2023-07-22T05:01:57;26.67;;;25.27;;
20896;SDS011;10608;42.600;23.398;2023-07-22T05:04:23;32.50;;;30.63;;
20896;SDS011;10608;42.600;23.398;2023-07-22T05:06:49;27.50;;;26.07;;
20896;SDS011;10608;42.600;23.398;2023-07-22T05:09:14;27.40;;;26.00;;
20896;SDS011;10608;42.600;23.398;2023-07-22T05:11:40;37.10;;;35.33;;
20896;SDS011;10608;42.600;23.398;2023-07-22T05:14:05;29.30;;;28.00;;
20896;SDS011;10608;42.600;23.398;2023-07-22T05:16:30;21.73;;;20.63;;
20896;SDS011;10608;42.600;23.398;2023-07-22T05:18:56;22.43;;;21.33;;
20896;SDS011;10608;42.600;23.398;2023-07-22T05:21:21;20.23;;;19.10;;
20896;SDS011;10608;42.600;23.398;2023-07-22T05:23:46;18.23;;;17.13;;
20896;SDS011;10608;42.600;23.398;2023-07-22T05:26:12;17.43;;;16.43;;
20896;SDS011;10608;42.600;23.398;2023-07-22T05:28:37;18.30;;;17.40;;
20896;SDS011;10608;42.600;23.398;2023-07-22T05:31:03;27.17;;;25.73;;
20896;SDS011;10608;42.600;23.398;2023-07-22T05:33:28;27.03;;;25.47;;
20896;SDS011;10608;42.600;23.398;2023-07-22T05:35:53;22.23;;;21.17;;
20896;SDS011;10608;42.600;23.398;2023-07-22T05:38:19;27.77;;;26.40;;
20896;SDS011;10608;42.600;23.398;2023-07-22T05:40:44;26.67;;;25.37;;
20896;SDS011;10608;42.600;23.398;2023-07-22T05:43:10;20.40;;;19.30;;
20896;SDS011;10608;42.600;23.398;2023-07-22T05:45:35;28.73;;;27.23;;
20896;SDS011;10608;42.600;23.398;2023-07-22T05:48:01;24.70;;;23.33;;
20896;SDS011;10608;42.600;23.398;2023-07-22T05:50:26;17.33;;;16.37;;
20896;SDS011;10608;42.600;23.398;2023-07-22T05:52:51;17.93;;;16.60;;
20896;SDS011;10608;42.600;23.398;2023-07-22T05:55:17;14.73;;;13.70;;
20896;SDS011;10608;42.600;23.398;2023-07-22T05:57:42;15.47;;;14.57;;
20896;SDS011;10608;42.600;23.398;2023-07-22T06:00:08;14.90;;;14.10;;
20896;SDS011;10608;42.600;23.398;2023-07-22T06:02:34;18.03;;;16.93;;
20896;SDS011;10608;42.600;23.398;2023-07-22T06:04:59;22.73;;;21.33;;
20896;SDS011;10608;42.600;23.398;2023-07-22T06:07:25;22.80;;;21.60;;
20896;SDS011;10608;42.600;23.398;2023-07-22T06:09:50;20.67;;;19.48;;
20896;SDS011;10608;42.600;23.398;2023-07-22T06:12:16;17.48;;;16.15;;
20896;SDS011;10608;42.600;23.398;2023-07-22T06:14:41;16.90;;;15.80;;
20896;SDS011;10608;42.600;23.398;2023-07-22T06:17:06;11.68;;;10.88;;
20896;SDS011;10608;42.600;23.398;2023-07-22T06:19:32;9.90;;;9.20;;
20896;SDS011;10608;42.600;23.398;2023-07-22T06:21:58;11.90;;;11.10;;
20896;SDS011;10608;42.600;23.398;2023-07-22T06:24:23;11.02;;;10.23;;
20896;SDS011;10608;42.600;23.398;2023-07-22T06:26:49;11.85;;;11.10;;
20896;SDS011;10608;42.600;23.398;2023-07-22T06:29:14;14.02;;;13.20;;
20896;SDS011;10608;42.600;23.398;2023-07-22T06:31:39;14.07;;;13.23;;
20896;SDS011;10608;42.600;23.398;2023-07-22T06:34:05;23.73;;;22.30;;
20896;SDS011;10608;42.600;23.398;2023-07-22T06:36:30;24.73;;;23.38;;
20896;SDS011;10608;42.600;23.398;2023-07-22T06:38:56;18.02;;;16.88;;
20896;SDS011;10608;42.600;23.398;2023-07-22T06:41:22;16.15;;;14.90;;
20896;SDS011;10608;42.600;23.398;2023-07-22T06:43:49;25.48;;;23.77;;
20896;SDS011;10608;42.600;23.398;2023-07-22T06:46:15;18.35;;;17.35;;
20896;SDS011;10608;42.600;23.398;2023-07-22T06:48:41;37.67;;;35.58;;
20896;SDS011;10608;42.600;23.398;2023-07-22T06:51:06;43.53;;;41.42;;
20896;SDS011;10608;42.600;23.398;2023-07-22T06:53:32;31.40;;;29.80;;
20896;SDS011;10608;42.600;23.398;2023-07-22T06:55:58;16.08;;;15.18;;
20896;SDS011;10608;42.600;23.398;2023-07-22T06:58:23;16.77;;;15.77;;
20896;SDS011;10608;42.600;23.398;2023-07-22T07:00:52;16.65;;;15.55;;
20896;SDS011;10608;42.600;23.398;2023-07-22T07:03:18;14.90;;;14.00;;
20896;SDS011;10608;42.600;23.398;2023-07-22T07:05:44;14.90;;;13.80;;
20896;SDS011;10608;42.600;23.398;2023-07-22T07:08:09;15.80;;;14.65;;
20896;SDS011;10608;42.600;23.398;2023-07-22T07:10:38;17.65;;;16.50;;
20896;SDS011;10608;42.600;23.398;2023-07-22T07:13:04;16.13;;;15.00;;
20896;SDS011;10608;42.600;23.398;2023-07-22T07:15:30;14.57;;;13.60;;
20896;SDS011;10608;42.600;23.398;2023-07-22T07:17:55;12.75;;;11.73;;
20896;SDS011;10608;42.600;23.398;2023-07-22T07:20:21;17.30;;;16.30;;
20896;SDS011;10608;42.600;23.398;2023-07-22T07:22:46;13.23;;;11.90;;
20896;SDS011;10608;42.600;23.398;2023-07-22T07:25:12;14.50;;;13.48;;
20896;SDS011;10608;42.600;23.398;2023-07-22T07:27:37;13.88;;;12.85;;
20896;SDS011;10608;42.600;23.398;2023-07-22T07:30:02;12.43;;;11.70;;
20896;SDS011;10608;42.600;23.398;2023-07-22T07:32:28;15.02;;;13.93;;
20896;SDS011;10608;42.600;23.398;2023-07-22T07:34:53;14.25;;;13.05;;
20896;SDS011;10608;42.600;23.398;2023-07-22T07:37:19;13.60;;;12.70;;
20896;SDS011;10608;42.600;23.398;2023-07-22T07:39:44;14.05;;;13.10;;
20896;SDS011;10608;42.600;23.398;2023-07-22T07:42:10;14.98;;;14.05;;
20896;SDS011;10608;42.600;23.398;2023-07-22T07:44:35;14.35;;;13.35;;
20896;SDS011;10608;42.600;23.398;2023-07-22T07:47:00;14.38;;;13.43;;
20896;SDS011;10608;42.600;23.398;2023-07-22T07:49:26;13.15;;;12.07;;
20896;SDS011;10608;42.600;23.398;2023-07-22T07:51:51;13.48;;;12.40;;
20896;SDS011;10608;42.600;23.398;2023-07-22T07:54:16;10.95;;;9.95;;
20896;SDS011;10608;42.600;23.398;2023-07-22T07:56:42;10.48;;;9.73;;
20896;SDS011;10608;42.600;23.398;2023-07-22T07:59:07;10.95;;;10.13;;
20896;SDS011;10608;42.600;23.398;2023-07-22T08:01:34;11.57;;;10.68;;
20896;SDS011;10608;42.600;23.398;2023-07-22T08:04:00;14.40;;;13.60;;
20896;SDS011;10608;42.600;23.398;2023-07-22T08:06:26;19.15;;;18.02;;
20896;SDS011;10608;42.600;23.398;2023-07-22T08:08:51;24.30;;;22.48;;
20896;SDS011;10608;42.600;23.398;2023-07-22T08:11:16;24.85;;;23.20;;
20896;SDS011;10608;42.600;23.398;2023-07-22T08:13:43;24.20;;;22.85;;
20896;SDS011;10608;42.600;23.398;2023-07-22T08:16:10;12.48;;;11.57;;
20896;SDS011;10608;42.600;23.398;2023-07-22T08:18:37;12.13;;;11.23;;
20896;SDS011;10608;42.600;23.398;2023-07-22T08:21:03;12.27;;;11.38;;
20896;SDS011;10608;42.600;23.398;2023-07-22T08:23:29;11.02;;;9.93;;
20896;SDS011;10608;42.600;23.398;2023-07-22T08:25:55;11.80;;;10.90;;
20896;SDS011;10608;42.600;23.398;2023-07-22T08:28:20;12.63;;;11.73;;
20896;SDS011;10608;42.600;23.398;2023-07-22T08:30:47;13.02;;;12.25;;
20896;SDS011;10608;42.600;23.398;2023-07-22T08:33:13;13.07;;;12.07;;
20896;SDS011;10608;42.600;23.398;2023-07-22T08:35:40;12.02;;;10.95;;
20896;SDS011;10608;42.600;23.398;2023-07-22T08:38:06;13.10;;;12.10;;
20896;SDS011;10608;42.600;23.398;2023-07-22T08:40:35;12.05;;;11.10;;
20896;SDS011;10608;42.600;23.398;2023-07-22T08:43:02;12.32;;;11.32;;
20896;SDS011;10608;42.600;23.398;2023-07-22T08:45:30;11.10;;;10.35;;
20896;SDS011;10608;42.600;23.398;2023-07-22T08:47:57;14.82;;;14.02;;
20896;SDS011;10608;42.600;23.398;2023-07-22T08:50:25;13.13;;;12.02;;
20896;SDS011;10608;42.600;23.398;2023-07-22T08:52:54;13.27;;;12.20;;
20896;SDS011;10608;42.600;23.398;2023-07-22T08:55:19;12.32;;;11.45;;
20896;SDS011;10608;42.600;23.398;2023-07-22T08:57:45;13.70;;;12.57;;
20896;SDS011;10608;42.600;23.398;2023-07-22T09:00:13;11.20;;;10.50;;
20896;SDS011;10608;42.600;23.398;2023-07-22T09:02:39;12.02;;;11.13;;
20896;SDS011;10608;42.600;23.398;2023-07-22T09:05:06;13.68;;;12.30;;
20896;SDS011;10608;42.600;23.398;2023-07-22T09:07:32;13.05;;;12.15;;
20896;SDS011;10608;42.600;23.398;2023-07-22T09:09:58;13.85;;;12.85;;
20896;SDS011;10608;42.600;23.398;2023-07-22T09:12:25;13.15;;;12.05;;
20896;SDS011;10608;42.600;23.398;2023-07-22T09:14:50;14.07;;;12.90;;
20896;SDS011;10608;42.600;23.398;2023-07-22T09:17:17;11.85;;;10.95;;
20896;SDS011;10608;42.600;23.398;2023-07-22T09:19:42;12.30;;;11.35;;
20896;SDS011;10608;42.600;23.398;2023-07-22T09:22:08;15.75;;;14.55;;
20896;SDS011;10608;42.600;23.398;2023-07-22T09:24:33;12.93;;;12.02;;
20896;SDS011;10608;42.600;23.398;2023-07-22T09:26:59;14.45;;;13.32;;
20896;SDS011;10608;42.600;23.398;2023-07-22T09:29:35;12.90;;;11.82;;
20896;SDS011;10608;42.600;23.398;2023-07-22T09:32:01;14.45;;;13.35;;
20896;SDS011;10608;42.600;23.398;2023-07-22T09:34:28;13.10;;;12.20;;
20896;SDS011;10608;42.600;23.398;2023-07-22T09:36:55;14.00;;;12.80;;
20896;SDS011;10608;42.600;23.398;2023-07-22T09:39:23;14.15;;;12.88;;
20896;SDS011;10608;42.600;23.398;2023-07-22T09:41:49;15.73;;;14.63;;
20896;SDS011;10608;42.600;23.398;2023-07-22T09:44:15;15.27;;;14.18;;
20896;SDS011;10608;42.600;23.398;2023-07-22T09:46:41;15.55;;;14.43;;
20896;SDS011;10608;42.600;23.398;2023-07-22T09:49:09;14.60;;;13.30;;
20896;SDS011;10608;42.600;23.398;2023-07-22T09:51:35;17.02;;;15.73;;
20896;SDS011;10608;42.600;23.398;2023-07-22T09:54:02;16.85;;;15.52;;
20896;SDS011;10608;42.600;23.398;2023-07-22T09:56:28;12.18;;;11.27;;
20896;SDS011;10608;42.600;23.398;2023-07-22T09:58:54;12.82;;;11.82;;
20896;SDS011;10608;42.600;23.398;2023-07-22T10:01:23;12.07;;;11.32;;
20896;SDS011;10608;42.600;23.398;2023-07-22T10:03:53;14.02;;;12.95;;
20896;SDS011;10608;42.600;23.398;2023-07-22T10:06:20;15.57;;;13.95;;
20896;SDS011;10608;42.600;23.398;2023-07-22T10:08:48;16.77;;;15.57;;
20896;SDS011;10608;42.600;23.398;2023-07-22T10:11:14;14.98;;;13.73;;
20896;SDS011;10608;42.600;23.398;2023-07-22T10:13:40;19.30;;;17.90;;
20896;SDS011;10608;42.600;23.398;2023-07-22T10:16:06;15.65;;;14.40;;
20896;SDS011;10608;42.600;23.398;2023-07-22T10:18:32;17.35;;;16.35;;
20896;SDS011;10608;42.600;23.398;2023-07-22T10:20:59;24.47;;;22.77;;
20896;SDS011;10608;42.600;23.398;2023-07-22T10:23:26;17.33;;;15.80;;
20896;SDS011;10608;42.600;23.398;2023-07-22T10:25:52;21.50;;;20.20;;
20896;SDS011;10608;42.600;23.398;2023-07-22T10:28:19;18.40;;;17.13;;
20896;SDS011;10608;42.600;23.398;2023-07-22T10:30:47;18.53;;;17.07;;
20896;SDS011;10608;42.600;23.398;2023-07-22T10:33:12;17.07;;;15.90;;
20896;SDS011;10608;42.600;23.398;2023-07-22T10:35:41;17.00;;;15.83;;
20896;SDS011;10608;42.600;23.398;2023-07-22T10:38:13;19.90;;;18.20;;
20896;SDS011;10608;42.600;23.398;2023-07-22T10:43:17;19.70;;;17.50;;
20896;SDS011;10608;42.600;23.398;2023-07-22T10:45:52;25.37;;;23.73;;
20896;SDS011;10608;42.600;23.398;2023-07-22T10:48:19;23.93;;;22.27;;
20896;SDS011;10608;42.600;23.398;2023-07-22T10:50:49;23.50;;;21.73;;
20896;SDS011;10608;42.600;23.398;2023-07-22T10:58:55;17.33;;;16.03;;
20896;SDS011;10608;42.600;23.398;2023-07-22T11:17:18;16.30;;;15.07;;
20896;SDS011;10608;42.600;23.398;2023-07-22T11:19:54;15.37;;;13.70;;
20896;SDS011;10608;42.600;23.398;2023-07-22T11:22:20;15.40;;;14.20;;
20896;SDS011;10608;42.600;23.398;2023-07-22T11:24:46;16.20;;;14.90;;
20896;SDS011;10608;42.600;23.398;2023-07-22T11:27:11;12.00;;;10.57;;
20896;SDS011;10608;42.600;23.398;2023-07-22T11:29:37;12.90;;;11.13;;
20896;SDS011;10608;42.600;23.398;2023-07-22T11:32:03;15.32;;;11.05;;
20896;SDS011;10608;42.600;23.398;2023-07-22T11:34:29;11.80;;;10.82;;
20896;SDS011;10608;42.600;23.398;2023-07-22T11:36:55;11.82;;;10.90;;
20896;SDS011;10608;42.600;23.398;2023-07-22T11:39:23;12.88;;;11.48;;
20896;SDS011;10608;42.600;23.398;2023-07-22T11:41:49;11.98;;;10.82;;
20896;SDS011;10608;42.600;23.398;2023-07-22T11:44:26;12.00;;;10.85;;
20896;SDS011;10608;42.600;23.398;2023-07-22T11:47:00;12.18;;;10.90;;
20896;SDS011;10608;42.600;23.398;2023-07-22T11:52:07;14.15;;;11.93;;
20896;SDS011;10608;42.600;23.398;2023-07-22T11:54:40;12.00;;;10.23;;
20896;SDS011;10608;42.600;23.398;2023-07-22T11:57:16;11.60;;;10.15;;
20896;SDS011;10608;42.600;23.398;2023-07-22T11:59:46;13.48;;;11.05;;
20896;SDS011;10608;42.600;23.398;2023-07-22T12:02:12;13.32;;;10.95;;
20896;SDS011;10608;42.600;23.398;2023-07-22T12:04:41;13.38;;;12.20;;
20896;SDS011;10608;42.600;23.398;2023-07-22T12:07:20;14.55;;;13.00;;
20896;SDS011;10608;42.600;23.398;2023-07-22T12:10:06;14.03;;;13.03;;
20896;SDS011;10608;42.600;23.398;2023-07-22T12:20:26;14.97;;;13.30;;
20896;SDS011;10608;42.600;23.398;2023-07-22T12:22:55;13.70;;;12.77;;
20896;SDS011;10608;42.600;23.398;2023-07-22T12:25:22;13.93;;;12.73;;
20896;SDS011;10608;42.600;23.398;2023-07-22T12:27:48;14.43;;;13.05;;
20896;SDS011;10608;42.600;23.398;2023-07-22T12:30:14;14.70;;;13.70;;
20896;SDS011;10608;42.600;23.398;2023-07-22T12:32:41;12.98;;;11.95;;
20896;SDS011;10608;42.600;23.398;2023-07-22T12:35:06;13.52;;;12.38;;
20896;SDS011;10608;42.600;23.398;2023-07-22T12:37:33;14.80;;;13.43;;
20896;SDS011;10608;42.600;23.398;2023-07-22T12:39:59;12.07;;;11.27;;
20896;SDS011;10608;42.600;23.398;2023-07-22T12:42:24;13.00;;;12.05;;
20896;SDS011;10608;42.600;23.398;2023-07-22T12:44:49;16.80;;;15.38;;
20896;SDS011;10608;42.600;23.398;2023-07-22T12:47:15;14.07;;;13.20;;
20896;SDS011;10608;42.600;23.398;2023-07-22T12:49:40;14.17;;;13.13;;
20896;SDS011;10608;42.600;23.398;2023-07-22T12:52:06;15.73;;;14.35;;
20896;SDS011;10608;42.600;23.398;2023-07-22T12:54:34;16.00;;;13.93;;
20896;SDS011;10608;42.600;23.398;2023-07-22T12:57:00;13.93;;;12.50;;
20896;SDS011;10608;42.600;23.398;2023-07-22T12:59:26;14.05;;;12.90;;
20896;SDS011;10608;42.600;23.398;2023-07-22T13:01:51;13.10;;;12.05;;
20896;SDS011;10608;42.600;23.398;2023-07-22T13:04:16;12.70;;;11.20;;
20896;SDS011;10608;42.600;23.398;2023-07-22T13:06:42;13.18;;;11.93;;
20896;SDS011;10608;42.600;23.398;2023-07-22T13:09:07;14.60;;;13.53;;
20896;SDS011;10608;42.600;23.398;2023-07-22T13:11:34;13.37;;;12.37;;
20896;SDS011;10608;42.600;23.398;2023-07-22T13:14:00;15.30;;;13.63;;
20896;SDS011;10608;42.600;23.398;2023-07-22T13:16:25;10.70;;;9.88;;
20896;SDS011;10608;42.600;23.398;2023-07-22T13:18:50;9.95;;;9.18;;
20896;SDS011;10608;42.600;23.398;2023-07-22T13:21:16;12.02;;;11.02;;
20896;SDS011;10608;42.600;23.398;2023-07-22T13:23:41;13.38;;;12.13;;
20896;SDS011;10608;42.600;23.398;2023-07-22T13:26:06;14.07;;;12.20;;
20896;SDS011;10608;42.600;23.398;2023-07-22T13:28:32;12.23;;;11.23;;
20896;SDS011;10608;42.600;23.398;2023-07-22T13:30:57;14.53;;;13.53;;
20896;SDS011;10608;42.600;23.398;2023-07-22T13:33:23;14.68;;;13.18;;
20896;SDS011;10608;42.600;23.398;2023-07-22T13:35:48;12.93;;;10.87;;
20896;SDS011;10608;42.600;23.398;2023-07-22T13:38:15;15.93;;;10.93;;
20896;SDS011;10608;42.600;23.398;2023-07-22T13:40:41;15.20;;;12.13;;
20896;SDS011;10608;42.600;23.398;2023-07-22T13:43:06;14.37;;;13.30;;
20896;SDS011;10608;42.600;23.398;2023-07-22T13:45:32;13.50;;;12.47;;
20896;SDS011;10608;42.600;23.398;2023-07-22T13:47:57;14.40;;;13.13;;
20896;SDS011;10608;42.600;23.398;2023-07-22T13:50:23;15.27;;;14.17;;
20896;SDS011;10608;42.600;23.398;2023-07-22T13:52:49;14.57;;;13.43;;
20896;SDS011;10608;42.600;23.398;2023-07-22T13:55:14;15.47;;;14.27;;
20896;SDS011;10608;42.600;23.398;2023-07-22T13:57:40;17.13;;;12.87;;
20896;SDS011;10608;42.600;23.398;2023-07-22T14:00:05;13.60;;;12.40;;
20896;SDS011;10608;42.600;23.398;2023-07-22T14:02:35;16.10;;;14.80;;
20896;SDS011;10608;42.600;23.398;2023-07-22T14:05:00;15.63;;;14.40;;
20896;SDS011;10608;42.600;23.398;2023-07-22T14:07:26;15.43;;;14.13;;
20896;SDS011;10608;42.600;23.398;2023-07-22T14:09:51;15.75;;;14.57;;
20896;SDS011;10608;42.600;23.398;2023-07-22T14:12:18;16.63;;;15.53;;
20896;SDS011;10608;42.600;23.398;2023-07-22T14:14:43;13.60;;;12.30;;
20896;SDS011;10608;42.600;23.398;2023-07-22T14:17:08;13.98;;;12.85;;
20896;SDS011;10608;42.600;23.398;2023-07-22T14:19:34;14.07;;;11.80;;
20896;SDS011;10608;42.600;23.398;2023-07-22T14:21:59;13.27;;;12.03;;
20896;SDS011;10608;42.600;23.398;2023-07-22T14:24:25;13.80;;;12.63;;
20896;SDS011;10608;42.600;23.398;2023-07-22T14:26:50;13.97;;;12.83;;
20896;SDS011;10608;42.600;23.398;2023-07-22T14:29:15;14.87;;;13.80;;
20896;SDS011;10608;42.600;23.398;2023-07-22T14:31:42;15.30;;;13.90;;
20896;SDS011;10608;42.600;23.398;2023-07-22T14:34:08;16.80;;;15.47;;
20896;SDS011;10608;42.600;23.398;2023-07-22T14:36:34;17.27;;;15.73;;
20896;SDS011;10608;42.600;23.398;2023-07-22T14:38:59;19.53;;;17.87;;
20896;SDS011;10608;42.600;23.398;2023-07-22T14:41:24;17.10;;;15.53;;